sensor_id;sensor_type;location;lat;lon;timestamp;P1;durP1;ratioP1;P2;durP2;ratioP2
2756;SDS011;1386;50.862;6.494;2023-11-21T16:32:24;12.03;;;9.87;;
2756;SDS011;1386;50.862;6.494;2023-11-21T16:35:23;16.07;;;9.93;;
2756;SDS011;1386;50.862;6.494;2023-11-21T16:37:59;18.30;;;10.67;;
2756;SDS011;1386;50.862;6.494;2023-11-21T16:40:44;13.93;;;9.93;;
2756;SDS011;1386;50.862;6.494;2023-11-21T16:43:30;20.43;;;11.20;;
2756;SDS011;1386;50.862;6.494;2023-11-21T16:46:12;15.90;;;10.97;;
2756;SDS011;1386;50.862;6.494;2023-11-21T16:48:42;19.53;;;12.47;;
2756;SDS011;1386;50.862;6.494;2023-11-21T16:51:16;21.47;;;14.07;;
2756;SDS011;1386;50.862;6.494;2023-11-21T16:54:00;15.63;;;13.43;;
2756;SDS011;1386;50.862;6.494;2023-11-21T16:56:37;21.30;;;13.40;;
2756;SDS011;1386;50.862;6.494;2023-11-21T16:59:06;22.00;;;13.30;;
2756;SDS011;1386;50.862;6.494;2023-11-21T17:01:36;19.00;;;13.10;;
2756;SDS011;1386;50.862;6.494;2023-11-21T17:04:04;25.27;;;16.33;;
2756;SDS011;1386;50.862;6.494;2023-11-21T17:06:39;25.63;;;15.13;;
2756;SDS011;1386;50.862;6.494;2023-11-21T17:09:07;23.27;;;14.63;;
2756;SDS011;1386;50.862;6.494;2023-11-21T17:11:45;25.87;;;15.57;;
2756;SDS011;1386;50.862;6.494;2023-11-21T17:14:23;26.63;;;15.00;;
2756;SDS011;1386;50.862;6.494;2023-11-21T17:17:03;25.67;;;15.87;;
2756;SDS011;1386;50.862;6.494;2023-11-21T17:19:45;23.80;;;16.30;;
2756;SDS011;1386;50.862;6.494;2023-11-21T17:22:22;26.90;;;17.70;;
2756;SDS011;1386;50.862;6.494;2023-11-21T17:24:57;25.63;;;17.00;;
2756;SDS011;1386;50.862;6.494;2023-11-21T17:27:44;24.60;;;17.27;;
2756;SDS011;1386;50.862;6.494;2023-11-21T17:30:42;32.50;;;17.77;;
2756;SDS011;1386;50.862;6.494;2023-11-21T22:34:57;13.17;;;10.63;;
2756;SDS011;1386;50.862;6.494;2023-11-21T22:37:24;14.87;;;10.53;;
2756;SDS011;1386;50.862;6.494;2023-11-21T22:39:51;11.73;;;10.43;;
2756;SDS011;1386;50.862;6.494;2023-11-21T22:42:18;12.87;;;10.97;;
2756;SDS011;1386;50.862;6.494;2023-11-21T22:44:45;15.00;;;10.73;;
2756;SDS011;1386;50.862;6.494;2023-11-21T22:47:13;12.00;;;9.80;;
2756;SDS011;1386;50.862;6.494;2023-11-21T22:49:40;15.07;;;10.53;;
2756;SDS011;1386;50.862;6.494;2023-11-21T22:52:08;11.60;;;10.40;;
2756;SDS011;1386;50.862;6.494;2023-11-21T22:54:35;12.67;;;10.03;;
2756;SDS011;1386;50.862;6.494;2023-11-21T22:57:03;14.20;;;10.47;;
2756;SDS011;1386;50.862;6.494;2023-11-21T22:59:30;12.10;;;10.57;;
2756;SDS011;1386;50.862;6.494;2023-11-21T23:01:57;11.67;;;10.00;;
2756;SDS011;1386;50.862;6.494;2023-11-21T23:04:24;12.53;;;10.10;;
2756;SDS011;1386;50.862;6.494;2023-11-21T23:06:51;14.63;;;10.30;;
2756;SDS011;1386;50.862;6.494;2023-11-21T23:09:19;13.93;;;10.63;;
2756;SDS011;1386;50.862;6.494;2023-11-21T23:11:47;16.23;;;10.13;;
2756;SDS011;1386;50.862;6.494;2023-11-21T23:14:14;15.53;;;10.50;;
2756;SDS011;1386;50.862;6.494;2023-11-21T23:16:41;15.40;;;10.20;;
2756;SDS011;1386;50.862;6.494;2023-11-21T23:19:08;13.20;;;10.00;;
2756;SDS011;1386;50.862;6.494;2023-11-21T23:21:39;12.87;;;10.53;;
2756;SDS011;1386;50.862;6.494;2023-11-21T23:24:07;12.90;;;9.80;;
2756;SDS011;1386;50.862;6.494;2023-11-21T23:26:37;12.97;;;10.53;;
2756;SDS011;1386;50.862;6.494;2023-11-21T23:29:08;12.20;;;10.33;;
2756;SDS011;1386;50.862;6.494;2023-11-21T23:32:06;14.20;;;10.07;;
2756;SDS011;1386;50.862;6.494;2023-11-21T23:35:09;12.20;;;9.93;;
2756;SDS011;1386;50.862;6.494;2023-11-21T23:37:36;15.13;;;10.33;;
